createdAt,value
2023-05-01T00:01:35.647Z,100651.69
2023-05-01T00:04:03.973Z,100654.34
2023-05-01T00:06:33.492Z,100648.34
2023-05-01T00:09:01.865Z,100646.84
2023-05-01T00:11:30.222Z,100647.69
2023-05-01T00:13:58.437Z,100646.84
2023-05-01T00:16:26.856Z,100638.41
2023-05-01T00:18:59.709Z,100643.88
2023-05-01T00:21:28.877Z,100638.56
2023-05-01T00:23:57.455Z,100638.72
2023-05-01T00:26:29.961Z,100640.53
2023-05-01T00:28:58.388Z,100629.56
2023-05-01T00:31:26.880Z,100629.56
2023-05-01T00:33:56.660Z,100631.22
2023-05-01T00:36:25.102Z,100634.56
2023-05-01T00:38:53.642Z,100629.25
2023-05-01T00:41:22.913Z,100633.22
2023-05-01T00:43:51.091Z,100624.09
2023-05-01T00:46:26.062Z,100627.19
2023-05-01T00:48:54.581Z,100622.22
2023-05-01T00:51:24.525Z,100627.19
2023-05-01T00:53:53.633Z,100626.50
2023-05-01T00:56:21.855Z,100626.13
2023-05-01T00:58:53.495Z,100621.16
2023-05-01T01:01:22.353Z,100616.19
2023-05-01T01:03:51.807Z,100617.16
2023-05-01T01:06:31.638Z,100620.13
2023-05-01T01:09:11.586Z,100611.97
2023-05-01T01:11:44.796Z,100619.78
2023-05-01T01:14:18.780Z,100609.34
2023-05-01T01:16:52.896Z,100619.25
2023-05-01T01:19:55.485Z,100611.97
2023-05-01T01:22:29.157Z,100599.72
2023-05-01T01:25:17.925Z,100602.38
2023-05-01T01:28:07.914Z,100596.41
2023-05-01T01:31:06.258Z,100593.44
2023-05-01T01:33:55.521Z,100585.50
2023-05-01T01:36:35.644Z,100594.91
2023-05-01T01:39:12.703Z,100594.91
2023-05-01T01:41:42.974Z,100586.81
2023-05-01T01:44:20.905Z,100579.03
2023-05-01T01:46:53.042Z,100586.50
2023-05-01T01:49:27.742Z,100585.38
2023-05-01T01:51:58.538Z,100581.75
2023-05-01T01:54:32.999Z,100574.25
2023-05-01T01:57:03.863Z,100576.44
2023-05-01T01:59:35.148Z,100578.78
2023-05-01T02:02:05.505Z,100563.19
2023-05-01T02:04:40.281Z,100570.66
2023-05-01T02:07:09.922Z,100572.97
2023-05-01T02:09:41.281Z,100575.31
2023-05-01T02:12:11.258Z,100570.34
2023-05-01T02:14:41.256Z,100565.09
2023-05-01T02:17:11.036Z,100565.09
2023-05-01T02:19:41.897Z,100566.25
2023-05-01T02:22:11.830Z,100566.09
2023-05-01T02:24:41.709Z,100558.97
2023-05-01T02:27:15.132Z,100547.91
2023-05-01T02:29:44.589Z,100556.69
2023-05-01T02:32:12.881Z,100553.44
2023-05-01T02:34:43.322Z,100555.56
2023-05-01T02:37:13.386Z,100557.06
2023-05-01T02:39:42.308Z,100555.59
2023-05-01T02:42:14.603Z,100547.31
2023-05-01T02:44:48.435Z,100539.19
2023-05-01T02:47:23.145Z,100546.16
2023-05-01T02:49:54.948Z,100545.84
2023-05-01T02:52:24.129Z,100533.91
2023-05-01T02:54:52.975Z,100526.97
2023-05-01T02:57:21.938Z,100527.78
2023-05-01T02:59:50.295Z,100530.94
2023-05-01T03:02:18.637Z,100520.84
2023-05-01T03:04:47.113Z,100520.50
2023-05-01T03:07:16.902Z,100514.03
2023-05-01T03:09:45.134Z,100517.69
2023-05-01T03:12:13.313Z,100520.81
2023-05-01T03:14:42.440Z,100510.88
2023-05-01T03:17:10.587Z,100515.53
2023-05-01T03:19:38.875Z,100510.53
2023-05-01T03:22:07.048Z,100507.41
2023-05-01T03:24:38.808Z,100512.53
2023-05-01T03:27:07.792Z,100509.56
2023-05-01T03:29:38.093Z,100518.34
2023-05-01T03:32:06.942Z,100510.22
2023-05-01T03:34:37.537Z,100515.53
2023-05-01T03:37:05.715Z,100516.16
2023-05-01T03:39:34.186Z,100515.19
2023-05-01T03:42:04.356Z,100513.50
2023-05-01T03:44:33.013Z,100514.53
2023-05-01T03:47:01.224Z,100519.50
2023-05-01T03:49:29.501Z,100522.97
2023-05-01T03:51:57.873Z,100519.50
2023-05-01T03:54:26.083Z,100527.63
2023-05-01T03:56:54.361Z,100523.16
2023-05-01T03:59:24.271Z,100524.66
2023-05-01T04:01:52.465Z,100525.28
2023-05-01T04:04:20.897Z,100527.47
2023-05-01T04:06:49.928Z,100532.63
2023-05-01T04:09:18.235Z,100530.44
2023-05-01T04:11:46.881Z,100531.63
2023-05-01T04:14:15.096Z,100530.63
2023-05-01T04:16:44.770Z,100516.53
2023-05-01T04:19:13.022Z,100534.41
2023-05-01T04:21:44.109Z,100533.78
2023-05-01T04:24:12.393Z,100538.72
2023-05-01T04:26:42.779Z,100537.72
2023-05-01T04:29:11.089Z,100533.59
2023-05-01T04:31:41.217Z,100532.59
2023-05-01T04:34:10.999Z,100544.00
2023-05-01T04:36:39.670Z,100532.72
2023-05-01T04:39:08.387Z,100533.19
2023-05-01T04:41:37.934Z,100541.66
2023-05-01T04:44:07.418Z,100535.19
2023-05-01T04:46:37.483Z,100539.63
2023-05-01T04:49:05.815Z,100535.13
2023-05-01T04:51:37.870Z,100535.94
2023-05-01T04:54:06.180Z,100533.41
2023-05-01T04:56:34.806Z,100535.91
2023-05-01T04:59:03.023Z,100543.84
2023-05-01T05:01:31.524Z,100538.19
2023-05-01T05:04:00.012Z,100537.34
2023-05-01T05:06:28.500Z,100528.69
2023-05-01T05:08:58.040Z,100535.31
2023-05-01T05:11:31.069Z,100526.88
2023-05-01T05:13:59.362Z,100532.31
2023-05-01T05:16:27.579Z,100522.16
2023-05-01T05:18:57.763Z,100522.47
2023-05-01T05:21:25.970Z,100524.75
2023-05-01T05:23:54.197Z,100523.09
2023-05-01T05:26:27.114Z,100516.31
2023-05-01T05:28:55.363Z,100515.78
2023-05-01T05:31:23.899Z,100515.91
2023-05-01T05:33:52.241Z,100514.75
2023-05-01T05:36:20.872Z,100515.38
2023-05-01T05:38:49.307Z,100515.38
2023-05-01T05:41:20.050Z,100508.88
2023-05-01T05:43:49.873Z,100515.16
2023-05-01T05:46:19.167Z,100511.78
2023-05-01T05:48:47.694Z,100493.16
2023-05-01T05:51:17.206Z,100497.78
2023-05-01T05:53:45.464Z,100504.41
2023-05-01T05:56:16.789Z,100508.28
2023-05-01T05:58:45.028Z,100510.41
2023-05-01T06:01:15.130Z,100495.91
2023-05-01T06:03:43.489Z,100509.88
2023-05-01T06:06:12.213Z,100505.03
2023-05-01T06:08:40.680Z,100494.72
2023-05-01T06:11:10.948Z,100504.84
2023-05-01T06:13:39.177Z,100499.03
2023-05-01T06:16:08.852Z,100489.06
2023-05-01T06:18:38.643Z,100499.88
2023-05-01T06:21:07.136Z,100486.84
2023-05-01T06:23:35.405Z,100497.97
2023-05-01T06:26:03.744Z,100487.13
2023-05-01T06:28:33.067Z,100488.97
2023-05-01T06:31:01.349Z,100488.97
2023-05-01T06:33:29.679Z,100484.00
2023-05-01T06:36:00.220Z,100468.84
2023-05-01T06:38:28.924Z,100472.16
2023-05-01T06:40:59.201Z,100469.22
2023-05-01T06:43:30.743Z,100471.09
2023-05-01T06:45:59.219Z,100456.28
2023-05-01T06:48:27.558Z,100466.22
2023-05-01T06:51:01.622Z,100467.31
2023-05-01T06:53:30.077Z,100465.22
2023-05-01T06:55:58.325Z,100465.94
2023-05-01T06:58:26.510Z,100455.28
2023-05-01T07:00:55.736Z,100463.03
2023-05-01T07:03:24.382Z,100453.81
2023-05-01T07:05:52.603Z,100452.53
2023-05-01T07:08:22.436Z,100448.88
2023-05-01T07:10:51.215Z,100458.22
2023-05-01T07:13:20.097Z,100446.38
2023-05-01T07:15:49.370Z,100441.72
2023-05-01T07:18:18.410Z,100443.53
2023-05-01T07:20:47.096Z,100441.53
2023-05-01T07:23:15.373Z,100443.06
2023-05-01T07:25:45.398Z,100440.78
2023-05-01T07:28:13.634Z,100441.66
2023-05-01T07:30:42.444Z,100445.94
2023-05-01T07:33:10.770Z,100435.75
2023-05-01T07:35:39.115Z,100427.63
2023-05-01T07:38:08.050Z,100418.94
2023-05-01T07:40:42.284Z,100420.84
2023-05-01T07:43:12.080Z,100414.56
2023-05-01T07:45:46.676Z,100410.66
2023-05-01T07:48:15.021Z,100409.31
2023-05-01T07:50:43.630Z,100396.72
2023-05-01T07:53:11.949Z,100400.34
2023-05-01T07:55:40.765Z,100396.81
2023-05-01T07:58:08.964Z,100385.78
2023-05-01T08:00:39.072Z,100399.06
2023-05-01T08:03:07.550Z,100391.31
2023-05-01T08:05:35.925Z,100381.25
2023-05-01T08:08:07.661Z,100388.06
2023-05-01T08:10:35.935Z,100383.31
2023-05-01T08:13:04.245Z,100379.63
2023-05-01T08:15:32.461Z,100387.25
2023-05-01T08:18:02.309Z,100379.88
2023-05-01T08:20:30.950Z,100386.88
2023-05-01T08:22:59.156Z,100384.78
2023-05-01T08:25:27.349Z,100380.25
2023-05-01T08:27:55.760Z,100375.53
2023-05-01T08:30:24.363Z,100377.47
2023-05-01T08:32:53.642Z,100369.50
2023-05-01T08:35:23.269Z,100373.06
2023-05-01T08:37:53.629Z,100372.53
2023-05-01T08:40:23.109Z,100368.88
2023-05-01T08:42:52.482Z,100364.97
2023-05-01T08:45:21.628Z,100356.56
2023-05-01T08:47:55.727Z,100358.19
2023-05-01T08:50:27.068Z,100352.03
2023-05-01T08:52:56.609Z,100355.91
2023-05-01T08:55:27.670Z,100351.78
2023-05-01T08:57:57.099Z,100349.13
2023-05-01T09:00:27.348Z,100353.59
2023-05-01T09:02:56.634Z,100350.50
2023-05-01T09:05:26.616Z,100329.94
2023-05-01T09:07:56.939Z,100328.50
2023-05-01T09:10:26.653Z,100318.03
2023-05-01T09:12:58.531Z,100314.16
2023-05-01T09:15:27.557Z,100307.56
2023-05-01T09:17:56.393Z,100305.72
2023-05-01T09:20:27.112Z,100302.63
2023-05-01T09:22:58.590Z,100298.88
2023-05-01T09:25:27.019Z,100285.94
2023-05-01T09:27:58.879Z,100280.38
2023-05-01T09:30:34.923Z,100284.72
2023-05-01T09:33:07.733Z,100279.97
2023-05-01T09:36:01.327Z,100286.56
2023-05-01T09:38:31.176Z,100277.94
2023-05-01T09:41:07.554Z,100272.97
2023-05-01T09:43:35.893Z,100279.50
2023-05-01T09:46:06.999Z,100280.50
2023-05-01T09:48:36.148Z,100285.00
2023-05-01T09:51:27.533Z,100276.34
2023-05-01T09:53:57.929Z,100287.00
2023-05-01T09:56:28.048Z,100275.47
2023-05-01T09:58:57.797Z,100275.06
2023-05-01T10:01:42.905Z,100269.47
2023-05-01T10:04:11.923Z,100256.28
2023-05-01T10:06:42.371Z,100266.41
2023-05-01T10:09:17.827Z,100262.91
2023-05-01T10:11:49.986Z,100258.53
2023-05-01T10:14:18.299Z,100253.41
2023-05-01T10:16:46.852Z,100248.28
2023-05-01T10:19:18.182Z,100241.53
2023-05-01T10:21:48.060Z,100226.16
2023-05-01T10:24:17.044Z,100228.69
2023-05-01T10:26:45.879Z,100224.63
2023-05-01T10:29:18.856Z,100214.78
2023-05-01T10:31:47.197Z,100210.88
2023-05-01T10:34:19.695Z,100196.88
2023-05-01T10:36:56.033Z,100196.03
2023-05-01T10:39:35.922Z,100204.72
2023-05-01T10:42:06.101Z,100193.38
2023-05-01T10:44:36.038Z,100192.34
2023-05-01T10:47:43.048Z,100182.88
2023-05-01T10:50:13.448Z,100183.69
2023-05-01T10:53:20.525Z,100175.84
2023-05-01T10:55:50.408Z,100169.03
2023-05-01T10:58:59.153Z,100161.63
2023-05-01T11:01:32.186Z,100151.50
2023-05-01T11:04:02.082Z,100153.72
2023-05-01T11:06:30.659Z,100144.00
2023-05-01T11:09:01.132Z,100126.69
2023-05-01T11:11:54.393Z,100123.31
2023-05-01T11:14:25.901Z,100123.47
2023-05-01T11:16:55.149Z,100111.94
2023-05-01T11:19:51.250Z,100109.19
2023-05-01T11:22:20.264Z,100103.81
2023-05-01T11:24:50.512Z,100101.06
2023-05-01T11:27:18.888Z,100102.44
2023-05-01T11:29:48.897Z,100085.00
2023-05-01T11:32:25.473Z,100074.75
2023-05-01T11:34:57.300Z,100075.88
2023-05-01T11:37:42.988Z,100070.81
2023-05-01T11:40:40.151Z,100067.88
2023-05-01T11:43:11.700Z,100066.31
2023-05-01T11:45:41.678Z,100056.19
2023-05-01T11:48:21.844Z,100055.88
2023-05-01T11:50:50.343Z,100050.56
2023-05-01T11:53:18.700Z,100050.28
2023-05-01T11:55:49.456Z,100044.34
2023-05-01T11:58:18.085Z,100037.13
2023-05-01T12:00:48.438Z,100040.78
2023-05-01T12:03:16.832Z,100030.25
2023-05-01T12:05:47.883Z,100025.22
2023-05-01T12:08:19.052Z,100014.88
2023-05-01T12:10:51.773Z,100013.19
2023-05-01T12:13:22.093Z,100006.19
2023-05-01T12:15:54.856Z,100001.22
2023-05-01T12:18:24.018Z,100004.63
2023-05-01T12:20:54.549Z,99997.66
2023-05-01T12:23:35.915Z,99995.22
2023-05-01T12:26:17.569Z,99992.88
2023-05-01T12:28:56.081Z,99984.44
2023-05-01T12:31:26.188Z,99984.81
2023-05-01T12:33:56.180Z,99978.00
2023-05-01T12:36:28.542Z,99980.31
2023-05-01T12:39:00.819Z,99969.78
2023-05-01T12:41:37.719Z,99963.59
2023-05-01T12:44:20.521Z,99962.88
2023-05-01T12:46:55.874Z,99958.69
2023-05-01T12:49:31.157Z,99958.47
2023-05-01T12:52:03.779Z,99950.53
2023-05-01T12:54:34.037Z,99942.81
2023-05-01T12:57:11.058Z,99947.72
2023-05-01T12:59:40.828Z,99931.94
2023-05-01T13:02:12.594Z,99936.28
2023-05-01T13:04:44.744Z,99935.44
2023-05-01T13:07:15.091Z,99924.91
2023-05-01T13:09:53.606Z,99907.66
2023-05-01T13:12:24.317Z,99901.44
2023-05-01T13:14:53.197Z,99902.88
2023-05-01T13:17:25.765Z,99899.50
2023-05-01T13:19:58.245Z,99893.63
2023-05-01T13:22:32.512Z,99885.66
2023-05-01T13:25:01.518Z,99879.75
2023-05-01T13:27:31.328Z,99876.59
2023-05-01T13:30:01.190Z,99865.97
2023-05-01T13:32:29.619Z,99859.78
2023-05-01T13:35:01.668Z,99855.47
2023-05-01T13:37:31.460Z,99860.94
2023-05-01T13:40:01.094Z,99859.50
2023-05-01T13:42:31.761Z,99852.00
2023-05-01T13:45:00.245Z,99842.81
2023-05-01T13:47:29.114Z,99835.88
2023-05-01T13:49:58.134Z,99842.91
2023-05-01T13:52:27.036Z,99841.75
2023-05-01T13:54:58.592Z,99840.22
2023-05-01T13:57:26.975Z,99839.41
2023-05-01T13:59:56.696Z,99829.91
2023-05-01T14:02:29.238Z,99830.41
2023-05-01T14:04:59.267Z,99824.50
2023-05-01T14:07:28.915Z,99834.47
2023-05-01T14:09:59.645Z,99822.78
2023-05-01T14:12:30.518Z,99829.09
2023-05-01T14:15:03.571Z,99823.06
2023-05-01T14:17:34.780Z,99819.56
2023-05-01T14:20:05.060Z,99819.75
2023-05-01T14:22:43.533Z,99808.34
2023-05-01T14:25:24.676Z,99813.66
2023-05-01T14:27:54.006Z,99813.34
2023-05-01T14:30:34.841Z,99815.66
2023-05-01T14:33:03.474Z,99801.47
2023-05-01T14:35:32.344Z,99791.91
2023-05-01T14:38:09.950Z,99791.59
2023-05-01T14:40:39.250Z,99803.38
2023-05-01T14:43:09.209Z,99801.59
2023-05-01T14:45:45.026Z,99809.53
2023-05-01T14:48:23.278Z,99795.50
2023-05-01T14:50:53.983Z,99795.09
2023-05-01T14:53:23.359Z,99801.38
2023-05-01T14:55:52.703Z,99796.22
2023-05-01T14:58:21.539Z,99786.03
2023-05-01T15:00:51.298Z,99787.59
2023-05-01T15:03:32.340Z,99780.88
2023-05-01T15:06:02.089Z,99783.03
2023-05-01T15:08:30.618Z,99781.13
2023-05-01T15:10:59.030Z,99781.78
2023-05-01T15:13:28.848Z,99775.91
2023-05-01T15:15:58.699Z,99764.41
2023-05-01T15:18:27.226Z,99765.88
2023-05-01T15:20:55.806Z,99768.09
2023-05-01T15:23:25.156Z,99761.31
2023-05-01T15:25:53.485Z,99761.22
2023-05-01T15:28:22.276Z,99759.75
2023-05-01T15:30:50.541Z,99756.81
2023-05-01T15:33:20.709Z,99753.56
2023-05-01T15:35:51.287Z,99746.19
2023-05-01T15:38:20.582Z,99749.47
2023-05-01T15:40:51.395Z,99751.09
2023-05-01T15:43:19.819Z,99744.09
2023-05-01T15:45:48.216Z,99737.06
2023-05-01T15:48:16.708Z,99719.50
2023-05-01T15:50:48.845Z,99722.31
2023-05-01T15:53:18.083Z,99713.06
2023-05-01T15:55:46.344Z,99710.13
2023-05-01T15:58:16.288Z,99697.72
2023-05-01T16:00:48.222Z,99699.13
2023-05-01T16:03:18.112Z,99697.97
2023-05-01T16:05:48.406Z,99692.25
2023-05-01T16:08:18.632Z,99683.06
2023-05-01T16:10:46.934Z,99693.00
2023-05-01T16:13:15.902Z,99698.88
2023-05-01T16:15:44.192Z,99684.28
2023-05-01T16:18:19.693Z,99679.94
2023-05-01T16:20:53.484Z,99677.53
2023-05-01T16:23:22.565Z,99678.00
2023-05-01T16:25:51.064Z,99675.22
2023-05-01T16:28:19.426Z,99660.28
2023-05-01T16:30:47.801Z,99663.22
2023-05-01T16:33:19.991Z,99666.13
2023-05-01T16:35:50.719Z,99674.94
2023-05-01T16:38:20.348Z,99662.53
2023-05-01T16:40:50.132Z,99668.44
2023-05-01T16:43:18.736Z,99668.44
2023-05-01T16:45:47.726Z,99682.03
2023-05-01T16:48:22.166Z,99652.28
2023-05-01T16:50:53.127Z,99657.31
2023-05-01T16:53:22.381Z,99659.75
2023-05-01T16:55:51.060Z,99661.06
2023-05-01T16:58:19.603Z,99656.41
2023-05-01T17:00:48.009Z,99662.94
2023-05-01T17:03:16.900Z,99661.69
2023-05-01T17:05:45.147Z,99666.75
2023-05-01T17:08:19.022Z,99664.44
2023-05-01T17:10:47.320Z,99662.41
2023-05-01T17:13:16.059Z,99656.69
2023-05-01T17:15:44.432Z,99659.25
2023-05-01T17:18:12.890Z,99656.72
2023-05-01T17:20:41.546Z,99658.72
2023-05-01T17:23:21.702Z,99660.25
2023-05-01T17:25:51.353Z,99660.97
2023-05-01T17:28:20.241Z,99645.56
2023-05-01T17:30:48.454Z,99653.63
2023-05-01T17:33:16.999Z,99640.00
2023-05-01T17:35:45.519Z,99652.59
2023-05-01T17:38:14.026Z,99656.94
2023-05-01T17:40:42.952Z,99641.19
2023-05-01T17:43:13.768Z,99653.22
2023-05-01T17:45:44.083Z,99646.41
2023-05-01T17:48:15.912Z,99644.19
2023-05-01T17:50:44.448Z,99634.97
2023-05-01T17:53:12.664Z,99634.75
2023-05-01T17:55:40.910Z,99629.06
2023-05-01T17:58:09.654Z,99637.44
2023-05-01T18:00:39.279Z,99632.78
2023-05-01T18:03:09.022Z,99629.50
2023-05-01T18:05:37.609Z,99635.25
2023-05-01T18:08:06.500Z,99630.34
2023-05-01T18:10:34.754Z,99629.75
2023-05-01T18:13:03.203Z,99637.81
2023-05-01T18:15:31.438Z,99636.63
2023-05-01T18:18:01.074Z,99639.78
2023-05-01T18:20:30.230Z,99643.66
2023-05-01T18:22:58.516Z,99642.25
2023-05-01T18:25:27.592Z,99642.50
2023-05-01T18:27:56.564Z,99629.78
2023-05-01T18:30:28.499Z,99626.28
2023-05-01T18:32:56.896Z,99626.97
2023-05-01T18:35:26.727Z,99630.63
2023-05-01T18:37:57.838Z,99633.88
2023-05-01T18:40:27.426Z,99629.78
2023-05-01T18:42:56.257Z,99617.41
2023-05-01T18:45:24.877Z,99622.31
2023-05-01T18:47:53.309Z,99617.63
2023-05-01T18:50:23.152Z,99632.00
2023-05-01T18:52:53.474Z,99618.00
2023-05-01T18:55:21.986Z,99610.31
2023-05-01T18:57:50.291Z,99616.34
2023-05-01T19:00:20.492Z,99618.06
2023-05-01T19:02:52.232Z,99612.59
2023-05-01T19:05:22.547Z,99601.97
2023-05-01T19:07:55.201Z,99597.88
2023-05-01T19:10:23.660Z,99586.22
2023-05-01T19:12:53.761Z,99601.84
2023-05-01T19:15:22.116Z,99596.72
2023-05-01T19:17:52.639Z,99584.81
2023-05-01T19:20:22.844Z,99591.81
2023-05-01T19:22:52.515Z,99586.28
2023-05-01T19:25:20.989Z,99573.94
2023-05-01T19:27:49.428Z,99588.78
2023-05-01T19:30:17.961Z,99586.28
2023-05-01T19:32:46.822Z,99587.09
2023-05-01T19:35:16.600Z,99569.06
2023-05-01T19:37:45.061Z,99580.59
2023-05-01T19:40:16.192Z,99577.31
2023-05-01T19:42:44.737Z,99573.22
2023-05-01T19:45:13.985Z,99565.28
2023-05-01T19:47:43.647Z,99565.16
2023-05-01T19:50:12.593Z,99553.25
2023-05-01T19:52:42.138Z,99560.94
2023-05-01T19:55:11.941Z,99554.63
2023-05-01T19:57:41.841Z,99554.72
2023-05-01T20:00:11.777Z,99562.03
2023-05-01T20:02:40.537Z,99557.13
2023-05-01T20:05:09.807Z,99546.53
2023-05-01T20:07:38.341Z,99546.00
2023-05-01T20:10:07.534Z,99542.16
2023-05-01T20:12:35.868Z,99530.72
2023-05-01T20:15:06.382Z,99532.66
2023-05-01T20:17:35.377Z,99530.81
2023-05-01T20:20:06.089Z,99528.22
2023-05-01T20:22:34.637Z,99519.22
2023-05-01T20:25:02.996Z,99535.63
2023-05-01T20:27:31.440Z,99522.25
2023-05-01T20:30:18.090Z,99528.44
2023-05-01T20:32:46.392Z,99522.03
2023-05-01T20:35:15.661Z,99512.16
2023-05-01T20:37:44.448Z,99518.09
2023-05-01T20:40:14.065Z,99525.69
2023-05-01T20:42:44.232Z,99523.59
2023-05-01T20:45:13.903Z,99523.59
2023-05-01T20:47:42.185Z,99524.38
2023-05-01T20:50:11.416Z,99529.66
2023-05-01T20:52:42.640Z,99517.94
2023-05-01T20:55:11.584Z,99518.53
2023-05-01T20:57:40.252Z,99511.44
2023-05-01T21:00:09.592Z,99512.84
2023-05-01T21:02:41.988Z,99520.66
2023-05-01T21:05:11.318Z,99515.88
2023-05-01T21:07:41.711Z,99515.22
2023-05-01T21:10:12.212Z,99506.81
2023-05-01T21:12:40.858Z,99513.44
2023-05-01T21:15:10.947Z,99520.41
2023-05-01T21:17:43.467Z,99515.28
2023-05-01T21:20:16.002Z,99519.16
2023-05-01T21:22:48.196Z,99526.38
2023-05-01T21:25:18.020Z,99530.91
2023-05-01T21:27:46.536Z,99515.50
2023-05-01T21:30:17.157Z,99514.91
2023-05-01T21:32:47.622Z,99517.38
2023-05-01T21:35:18.632Z,99522.94
2023-05-01T21:37:54.731Z,99520.16
2023-05-01T21:40:28.810Z,99516.19
2023-05-01T21:42:57.617Z,99519.56
2023-05-01T21:45:32.492Z,99516.06
2023-05-01T21:48:04.904Z,99514.22
2023-05-01T21:50:38.165Z,99515.84
2023-05-01T21:53:08.144Z,99516.28
2023-05-01T21:55:39.622Z,99524.09
2023-05-01T21:58:07.980Z,99512.41
2023-05-01T22:00:39.092Z,99508.34
2023-05-01T22:03:10.586Z,99520.22
2023-05-01T22:05:41.106Z,99531.75
2023-05-01T22:08:09.439Z,99518.59
2023-05-01T22:10:37.776Z,99524.97
2023-05-01T22:13:06.612Z,99531.97
2023-05-01T22:15:34.814Z,99527.53
2023-05-01T22:18:03.582Z,99534.38
2023-05-01T22:20:37.135Z,99549.47
2023-05-01T22:23:05.704Z,99550.13
2023-05-01T22:25:34.283Z,99542.41
2023-05-01T22:28:04.511Z,99557.94
2023-05-01T22:30:34.938Z,99551.97
2023-05-01T22:33:04.521Z,99564.59
2023-05-01T22:35:34.417Z,99561.66
2023-05-01T22:38:03.937Z,99573.63
2023-05-01T22:40:34.830Z,99567.97
2023-05-01T22:43:09.559Z,99576.47
2023-05-01T22:45:38.733Z,99568.31
2023-05-01T22:48:08.930Z,99574.69
2023-05-01T22:50:38.879Z,99570.88
2023-05-01T22:53:07.353Z,99573.81
2023-05-01T22:55:35.725Z,99584.50
2023-05-01T22:58:04.327Z,99592.94
2023-05-01T23:00:32.662Z,99585.38
2023-05-01T23:03:01.629Z,99590.75
2023-05-01T23:05:33.222Z,99589.72
2023-05-01T23:08:04.500Z,99599.13
2023-05-01T23:10:33.768Z,99597.09
2023-05-01T23:13:02.269Z,99606.31
2023-05-01T23:15:33.067Z,99602.81
2023-05-01T23:18:01.516Z,99596.03
2023-05-01T23:20:29.922Z,99600.56
2023-05-01T23:22:58.252Z,99602.19
2023-05-01T23:25:28.944Z,99603.38
2023-05-01T23:27:58.238Z,99599.69
2023-05-01T23:30:29.830Z,99612.78
2023-05-01T23:33:00.138Z,99604.75
2023-05-01T23:35:35.027Z,99599.41
2023-05-01T23:38:03.710Z,99613.13
2023-05-01T23:40:33.664Z,99608.41
2023-05-01T23:43:02.165Z,99612.91
2023-05-01T23:45:30.482Z,99617.44
2023-05-01T23:48:00.288Z,99616.59
2023-05-01T23:50:28.648Z,99622.94
2023-05-01T23:52:57.238Z,99623.13
2023-05-01T23:55:25.479Z,99621.25
2023-05-01T23:57:55.643Z,99622.84
